sensor_id;sensor_type;location;lat;lon;timestamp;P1;durP1;ratioP1;P2;durP2;ratioP2
28531;SDS011;15738;44.860;10.066;2022-08-11T00:01:17;4.47;;;1.70;;
28531;SDS011;15738;44.860;10.066;2022-08-11T00:04:05;16.17;;;2.40;;
28531;SDS011;15738;44.860;10.066;2022-08-11T00:06:51;10.85;;;2.92;;
28531;SDS011;15738;44.860;10.066;2022-08-11T00:09:38;8.40;;;2.63;;
28531;SDS011;15738;44.860;10.066;2022-08-11T00:12:25;14.15;;;2.75;;
28531;SDS011;15738;44.860;10.066;2022-08-11T00:15:11;12.82;;;2.72;;
28531;SDS011;15738;44.860;10.066;2022-08-11T00:17:57;9.80;;;3.50;;
28531;SDS011;15738;44.860;10.066;2022-08-11T00:20:44;12.55;;;3.45;;
28531;SDS011;15738;44.860;10.066;2022-08-11T00:23:31;15.40;;;2.95;;
28531;SDS011;15738;44.860;10.066;2022-08-11T00:26:17;13.45;;;3.20;;
28531;SDS011;15738;44.860;10.066;2022-08-11T00:29:07;8.60;;;3.05;;
28531;SDS011;15738;44.860;10.066;2022-08-11T00:31:55;16.27;;;3.53;;
28531;SDS011;15738;44.860;10.066;2022-08-11T00:34:42;5.93;;;3.08;;
28531;SDS011;15738;44.860;10.066;2022-08-11T00:37:30;12.30;;;3.47;;
28531;SDS011;15738;44.860;10.066;2022-08-11T00:40:27;8.65;;;3.40;;
28531;SDS011;15738;44.860;10.066;2022-08-11T00:46:16;13.32;;;3.53;;
28531;SDS011;15738;44.860;10.066;2022-08-11T00:49:21;7.38;;;3.03;;
28531;SDS011;15738;44.860;10.066;2022-08-11T01:04:13;11.38;;;4.47;;
28531;SDS011;15738;44.860;10.066;2022-08-11T01:20:07;10.73;;;3.20;;
28531;SDS011;15738;44.860;10.066;2022-08-11T01:32:48;9.57;;;3.35;;
28531;SDS011;15738;44.860;10.066;2022-08-11T01:39:03;4.65;;;2.88;;
28531;SDS011;15738;44.860;10.066;2022-08-11T01:48:55;15.05;;;3.10;;
28531;SDS011;15738;44.860;10.066;2022-08-11T01:52:25;7.05;;;2.80;;
28531;SDS011;15738;44.860;10.066;2022-08-11T01:55:25;5.18;;;2.55;;
28531;SDS011;15738;44.860;10.066;2022-08-11T01:58:44;4.72;;;2.35;;
28531;SDS011;15738;44.860;10.066;2022-08-11T02:04:39;11.70;;;2.75;;
28531;SDS011;15738;44.860;10.066;2022-08-11T02:07:37;5.03;;;2.53;;
28531;SDS011;15738;44.860;10.066;2022-08-11T02:10:43;4.13;;;2.13;;
28531;SDS011;15738;44.860;10.066;2022-08-11T02:20:55;6.05;;;2.33;;
28531;SDS011;15738;44.860;10.066;2022-08-11T02:24:03;8.57;;;2.20;;
28531;SDS011;15738;44.860;10.066;2022-08-11T02:27:05;6.28;;;2.33;;
28531;SDS011;15738;44.860;10.066;2022-08-11T02:30:00;4.47;;;2.25;;
28531;SDS011;15738;44.860;10.066;2022-08-11T02:33:07;15.20;;;2.95;;
28531;SDS011;15738;44.860;10.066;2022-08-11T02:36:57;4.82;;;2.15;;
28531;SDS011;15738;44.860;10.066;2022-08-11T02:39:23;8.38;;;2.10;;
28531;SDS011;15738;44.860;10.066;2022-08-11T02:42:32;9.05;;;2.40;;
28531;SDS011;15738;44.860;10.066;2022-08-11T02:49:27;8.98;;;2.00;;
28531;SDS011;15738;44.860;10.066;2022-08-11T02:55:17;10.23;;;1.98;;
28531;SDS011;15738;44.860;10.066;2022-08-11T03:02:09;10.75;;;2.00;;
28531;SDS011;15738;44.860;10.066;2022-08-11T03:10:53;6.38;;;1.73;;
28531;SDS011;15738;44.860;10.066;2022-08-11T03:14:30;4.40;;;1.83;;
28531;SDS011;15738;44.860;10.066;2022-08-11T03:17:53;5.13;;;2.03;;
28531;SDS011;15738;44.860;10.066;2022-08-11T03:39:19;6.97;;;2.00;;
28531;SDS011;15738;44.860;10.066;2022-08-11T03:42:19;6.80;;;2.10;;
28531;SDS011;15738;44.860;10.066;2022-08-11T03:45:25;6.82;;;2.00;;
28531;SDS011;15738;44.860;10.066;2022-08-11T04:13:08;2.85;;;1.92;;
28531;SDS011;15738;44.860;10.066;2022-08-11T04:35:21;11.05;;;2.55;;
28531;SDS011;15738;44.860;10.066;2022-08-11T04:47:50;8.02;;;2.38;;
28531;SDS011;15738;44.860;10.066;2022-08-11T04:54:52;14.27;;;2.88;;
28531;SDS011;15738;44.860;10.066;2022-08-11T04:58:40;5.05;;;2.25;;
28531;SDS011;15738;44.860;10.066;2022-08-11T05:12:12;22.70;;;4.10;;
28531;SDS011;15738;44.860;10.066;2022-08-11T05:15:04;8.48;;;3.78;;
28531;SDS011;15738;44.860;10.066;2022-08-11T05:18:36;7.00;;;4.00;;
28531;SDS011;15738;44.860;10.066;2022-08-11T05:21:55;9.10;;;3.70;;
28531;SDS011;15738;44.860;10.066;2022-08-11T05:25:10;6.82;;;3.67;;
28531;SDS011;15738;44.860;10.066;2022-08-11T05:28:41;6.75;;;3.47;;
28531;SDS011;15738;44.860;10.066;2022-08-11T05:32:05;8.50;;;3.53;;
28531;SDS011;15738;44.860;10.066;2022-08-11T05:35:13;12.68;;;3.38;;
28531;SDS011;15738;44.860;10.066;2022-08-11T05:38:23;10.93;;;4.50;;
28531;SDS011;15738;44.860;10.066;2022-08-11T05:41:29;10.05;;;4.25;;
28531;SDS011;15738;44.860;10.066;2022-08-11T05:44:34;11.50;;;4.80;;
28531;SDS011;15738;44.860;10.066;2022-08-11T05:47:41;15.00;;;5.10;;
28531;SDS011;15738;44.860;10.066;2022-08-11T05:50:54;8.57;;;4.18;;
28531;SDS011;15738;44.860;10.066;2022-08-11T05:54:02;9.50;;;4.50;;
28531;SDS011;15738;44.860;10.066;2022-08-11T05:57:20;18.60;;;4.20;;
28531;SDS011;15738;44.860;10.066;2022-08-11T06:00:30;13.18;;;4.78;;
28531;SDS011;15738;44.860;10.066;2022-08-11T06:03:26;8.18;;;3.70;;
28531;SDS011;15738;44.860;10.066;2022-08-11T06:06:13;9.75;;;3.03;;
28531;SDS011;15738;44.860;10.066;2022-08-11T06:09:00;12.77;;;3.28;;
28531;SDS011;15738;44.860;10.066;2022-08-11T06:11:46;9.93;;;3.38;;
28531;SDS011;15738;44.860;10.066;2022-08-11T06:14:33;12.52;;;3.10;;
28531;SDS011;15738;44.860;10.066;2022-08-11T06:17:26;7.88;;;3.00;;
28531;SDS011;15738;44.860;10.066;2022-08-11T06:20:23;14.50;;;3.50;;
28531;SDS011;15738;44.860;10.066;2022-08-11T06:23:10;16.92;;;4.00;;
28531;SDS011;15738;44.860;10.066;2022-08-11T06:25:58;9.18;;;3.47;;
28531;SDS011;15738;44.860;10.066;2022-08-11T06:28:45;9.30;;;3.10;;
28531;SDS011;15738;44.860;10.066;2022-08-11T06:31:32;10.90;;;3.00;;
28531;SDS011;15738;44.860;10.066;2022-08-11T06:34:31;7.93;;;3.22;;
28531;SDS011;15738;44.860;10.066;2022-08-11T06:46:49;12.85;;;3.00;;
28531;SDS011;15738;44.860;10.066;2022-08-11T06:49:38;8.13;;;2.83;;
28531;SDS011;15738;44.860;10.066;2022-08-11T06:52:46;7.78;;;3.00;;
28531;SDS011;15738;44.860;10.066;2022-08-11T06:55:33;5.93;;;3.00;;
28531;SDS011;15738;44.860;10.066;2022-08-11T06:58:42;9.60;;;2.67;;
28531;SDS011;15738;44.860;10.066;2022-08-11T07:05:04;14.68;;;2.45;;
28531;SDS011;15738;44.860;10.066;2022-08-11T07:14:32;16.85;;;2.85;;
28531;SDS011;15738;44.860;10.066;2022-08-11T07:17:45;5.32;;;2.10;;
28531;SDS011;15738;44.860;10.066;2022-08-11T07:20:54;15.30;;;2.65;;
28531;SDS011;15738;44.860;10.066;2022-08-11T07:24:34;4.93;;;2.90;;
28531;SDS011;15738;44.860;10.066;2022-08-11T07:28:03;11.68;;;2.70;;
28531;SDS011;15738;44.860;10.066;2022-08-11T07:31:15;13.02;;;2.75;;
28531;SDS011;15738;44.860;10.066;2022-08-11T07:37:09;10.50;;;2.53;;
28531;SDS011;15738;44.860;10.066;2022-08-11T07:40:02;8.18;;;2.47;;
28531;SDS011;15738;44.860;10.066;2022-08-11T07:42:49;10.40;;;2.88;;
28531;SDS011;15738;44.860;10.066;2022-08-11T07:45:36;11.55;;;3.33;;
28531;SDS011;15738;44.860;10.066;2022-08-11T07:48:48;5.95;;;3.00;;
28531;SDS011;15738;44.860;10.066;2022-08-11T07:51:53;8.30;;;2.67;;
28531;SDS011;15738;44.860;10.066;2022-08-11T07:55:03;6.63;;;2.28;;
28531;SDS011;15738;44.860;10.066;2022-08-11T07:58:00;5.78;;;2.97;;
28531;SDS011;15738;44.860;10.066;2022-08-11T08:01:09;8.77;;;2.35;;
28531;SDS011;15738;44.860;10.066;2022-08-11T08:04:16;12.00;;;3.03;;
28531;SDS011;15738;44.860;10.066;2022-08-11T08:07:21;21.45;;;3.33;;
28531;SDS011;15738;44.860;10.066;2022-08-11T08:10:26;5.05;;;2.70;;
28531;SDS011;15738;44.860;10.066;2022-08-11T08:13:32;15.57;;;3.00;;
28531;SDS011;15738;44.860;10.066;2022-08-11T08:16:38;9.02;;;2.90;;
28531;SDS011;15738;44.860;10.066;2022-08-11T08:19:43;11.93;;;2.63;;
28531;SDS011;15738;44.860;10.066;2022-08-11T08:22:32;5.32;;;2.65;;
28531;SDS011;15738;44.860;10.066;2022-08-11T08:25:37;8.43;;;2.35;;
28531;SDS011;15738;44.860;10.066;2022-08-11T08:28:25;6.68;;;2.50;;
28531;SDS011;15738;44.860;10.066;2022-08-11T08:31:16;12.10;;;2.85;;
28531;SDS011;15738;44.860;10.066;2022-08-11T08:34:02;7.20;;;2.67;;
28531;SDS011;15738;44.860;10.066;2022-08-11T08:36:49;14.88;;;2.80;;
28531;SDS011;15738;44.860;10.066;2022-08-11T08:39:35;5.15;;;2.15;;
28531;SDS011;15738;44.860;10.066;2022-08-11T08:42:23;8.00;;;1.92;;
28531;SDS011;15738;44.860;10.066;2022-08-11T08:45:10;5.10;;;2.13;;
28531;SDS011;15738;44.860;10.066;2022-08-11T08:48:04;7.65;;;1.67;;
28531;SDS011;15738;44.860;10.066;2022-08-11T08:50:55;6.03;;;1.95;;
28531;SDS011;15738;44.860;10.066;2022-08-11T08:57:14;9.10;;;1.92;;
28531;SDS011;15738;44.860;10.066;2022-08-11T09:00:04;6.80;;;2.20;;
28531;SDS011;15738;44.860;10.066;2022-08-11T09:02:52;6.93;;;2.15;;
28531;SDS011;15738;44.860;10.066;2022-08-11T09:05:39;4.85;;;2.05;;
28531;SDS011;15738;44.860;10.066;2022-08-11T09:08:25;9.35;;;2.30;;
28531;SDS011;15738;44.860;10.066;2022-08-11T09:11:14;5.45;;;2.10;;
28531;SDS011;15738;44.860;10.066;2022-08-11T09:14:19;4.22;;;1.77;;
28531;SDS011;15738;44.860;10.066;2022-08-11T09:17:43;4.13;;;1.83;;
28531;SDS011;15738;44.860;10.066;2022-08-11T09:20:34;9.55;;;2.22;;
28531;SDS011;15738;44.860;10.066;2022-08-11T09:23:22;7.57;;;2.28;;
28531;SDS011;15738;44.860;10.066;2022-08-11T09:26:48;3.55;;;2.10;;
28531;SDS011;15738;44.860;10.066;2022-08-11T09:29:47;5.05;;;1.90;;
28531;SDS011;15738;44.860;10.066;2022-08-11T09:32:34;6.80;;;2.10;;
28531;SDS011;15738;44.860;10.066;2022-08-11T09:35:20;13.88;;;2.30;;
28531;SDS011;15738;44.860;10.066;2022-08-11T09:38:06;7.63;;;2.10;;
28531;SDS011;15738;44.860;10.066;2022-08-11T09:41:14;7.10;;;2.22;;
28531;SDS011;15738;44.860;10.066;2022-08-11T09:44:00;7.72;;;1.90;;
28531;SDS011;15738;44.860;10.066;2022-08-11T09:47:05;4.35;;;1.88;;
28531;SDS011;15738;44.860;10.066;2022-08-11T09:50:00;8.35;;;2.35;;
28531;SDS011;15738;44.860;10.066;2022-08-11T09:52:47;4.88;;;1.92;;
28531;SDS011;15738;44.860;10.066;2022-08-11T09:55:55;8.93;;;1.90;;
28531;SDS011;15738;44.860;10.066;2022-08-11T09:58:42;9.40;;;1.80;;
28531;SDS011;15738;44.860;10.066;2022-08-11T10:01:30;6.57;;;1.95;;
28531;SDS011;15738;44.860;10.066;2022-08-11T10:04:37;10.45;;;2.05;;
28531;SDS011;15738;44.860;10.066;2022-08-11T10:07:31;12.32;;;1.83;;
28531;SDS011;15738;44.860;10.066;2022-08-11T10:10:18;5.38;;;1.88;;
28531;SDS011;15738;44.860;10.066;2022-08-11T10:13:12;9.45;;;1.75;;
28531;SDS011;15738;44.860;10.066;2022-08-11T10:16:23;8.95;;;1.60;;
28531;SDS011;15738;44.860;10.066;2022-08-11T10:19:12;6.53;;;1.70;;
28531;SDS011;15738;44.860;10.066;2022-08-11T10:22:03;3.90;;;1.80;;
28531;SDS011;15738;44.860;10.066;2022-08-11T10:25:12;7.95;;;2.25;;
28531;SDS011;15738;44.860;10.066;2022-08-11T10:28:17;8.65;;;2.10;;
28531;SDS011;15738;44.860;10.066;2022-08-11T10:31:23;6.38;;;2.20;;
28531;SDS011;15738;44.860;10.066;2022-08-11T10:34:43;5.10;;;1.45;;
28531;SDS011;15738;44.860;10.066;2022-08-11T10:37:42;3.05;;;1.77;;
28531;SDS011;15738;44.860;10.066;2022-08-11T10:40:50;4.78;;;1.70;;
28531;SDS011;15738;44.860;10.066;2022-08-11T10:43:57;5.32;;;1.77;;
28531;SDS011;15738;44.860;10.066;2022-08-11T10:46:47;2.78;;;1.48;;
28531;SDS011;15738;44.860;10.066;2022-08-11T10:49:53;7.53;;;1.95;;
28531;SDS011;15738;44.860;10.066;2022-08-11T10:53:03;8.05;;;1.92;;
28531;SDS011;15738;44.860;10.066;2022-08-11T10:56:10;5.95;;;1.40;;
28531;SDS011;15738;44.860;10.066;2022-08-11T10:59:17;3.00;;;1.60;;
28531;SDS011;15738;44.860;10.066;2022-08-11T11:02:04;4.70;;;1.65;;
28531;SDS011;15738;44.860;10.066;2022-08-11T11:04:58;3.83;;;1.70;;
28531;SDS011;15738;44.860;10.066;2022-08-11T11:08:04;4.00;;;1.15;;
28531;SDS011;15738;44.860;10.066;2022-08-11T11:11:17;3.58;;;1.27;;
28531;SDS011;15738;44.860;10.066;2022-08-11T11:14:04;4.50;;;1.75;;
28531;SDS011;15738;44.860;10.066;2022-08-11T11:17:11;4.03;;;1.70;;
28531;SDS011;15738;44.860;10.066;2022-08-11T11:19:58;4.78;;;1.25;;
28531;SDS011;15738;44.860;10.066;2022-08-11T11:22:48;5.05;;;1.67;;
28531;SDS011;15738;44.860;10.066;2022-08-11T11:36:00;6.68;;;2.10;;
28531;SDS011;15738;44.860;10.066;2022-08-11T11:39:06;4.28;;;2.10;;
28531;SDS011;15738;44.860;10.066;2022-08-11T11:41:54;7.95;;;2.10;;
28531;SDS011;15738;44.860;10.066;2022-08-11T11:44:42;9.32;;;1.70;;
28531;SDS011;15738;44.860;10.066;2022-08-11T11:47:29;8.48;;;1.90;;
28531;SDS011;15738;44.860;10.066;2022-08-11T11:50:27;7.68;;;1.80;;
28531;SDS011;15738;44.860;10.066;2022-08-11T11:53:20;7.50;;;1.80;;
28531;SDS011;15738;44.860;10.066;2022-08-11T11:56:07;8.68;;;1.70;;
28531;SDS011;15738;44.860;10.066;2022-08-11T11:58:54;4.57;;;1.77;;
28531;SDS011;15738;44.860;10.066;2022-08-11T12:01:59;6.60;;;2.00;;
28531;SDS011;15738;44.860;10.066;2022-08-11T12:04:56;11.10;;;1.83;;
28531;SDS011;15738;44.860;10.066;2022-08-11T12:07:42;7.53;;;1.95;;
28531;SDS011;15738;44.860;10.066;2022-08-11T12:10:58;11.75;;;1.88;;
28531;SDS011;15738;44.860;10.066;2022-08-11T12:14:21;10.20;;;2.08;;
28531;SDS011;15738;44.860;10.066;2022-08-11T12:17:09;7.22;;;1.83;;
28531;SDS011;15738;44.860;10.066;2022-08-11T12:19:55;10.20;;;2.05;;
28531;SDS011;15738;44.860;10.066;2022-08-11T12:22:42;5.00;;;2.13;;
28531;SDS011;15738;44.860;10.066;2022-08-11T12:25:46;5.97;;;2.17;;
28531;SDS011;15738;44.860;10.066;2022-08-11T12:29:11;7.38;;;2.05;;
28531;SDS011;15738;44.860;10.066;2022-08-11T12:31:57;2.60;;;1.63;;
28531;SDS011;15738;44.860;10.066;2022-08-11T12:34:44;4.25;;;1.88;;
28531;SDS011;15738;44.860;10.066;2022-08-11T12:37:31;5.18;;;1.70;;
28531;SDS011;15738;44.860;10.066;2022-08-11T12:40:33;4.07;;;1.52;;
28531;SDS011;15738;44.860;10.066;2022-08-11T12:44:00;2.60;;;1.38;;
28531;SDS011;15738;44.860;10.066;2022-08-11T12:47:09;7.15;;;1.80;;
28531;SDS011;15738;44.860;10.066;2022-08-11T12:49:57;9.18;;;2.35;;
28531;SDS011;15738;44.860;10.066;2022-08-11T12:53:15;4.13;;;1.90;;
28531;SDS011;15738;44.860;10.066;2022-08-11T12:56:03;8.60;;;1.92;;
28531;SDS011;15738;44.860;10.066;2022-08-11T12:59:09;3.50;;;1.63;;
28531;SDS011;15738;44.860;10.066;2022-08-11T13:02:15;6.82;;;1.70;;
28531;SDS011;15738;44.860;10.066;2022-08-11T13:05:28;5.53;;;1.42;;
28531;SDS011;15738;44.860;10.066;2022-08-11T13:08:29;7.07;;;1.38;;
28531;SDS011;15738;44.860;10.066;2022-08-11T13:11:19;5.78;;;1.50;;
28531;SDS011;15738;44.860;10.066;2022-08-11T13:14:41;3.33;;;1.58;;
28531;SDS011;15738;44.860;10.066;2022-08-11T13:17:28;13.70;;;1.48;;
28531;SDS011;15738;44.860;10.066;2022-08-11T13:20:28;3.45;;;1.50;;
28531;SDS011;15738;44.860;10.066;2022-08-11T13:23:14;4.68;;;1.35;;
28531;SDS011;15738;44.860;10.066;2022-08-11T13:26:00;3.53;;;1.38;;
28531;SDS011;15738;44.860;10.066;2022-08-11T13:28:47;3.58;;;1.48;;
28531;SDS011;15738;44.860;10.066;2022-08-11T13:31:33;5.80;;;1.73;;
28531;SDS011;15738;44.860;10.066;2022-08-11T13:34:19;3.50;;;1.30;;
28531;SDS011;15738;44.860;10.066;2022-08-11T13:37:08;5.60;;;1.60;;
28531;SDS011;15738;44.860;10.066;2022-08-11T13:39:57;4.65;;;1.55;;
28531;SDS011;15738;44.860;10.066;2022-08-11T13:42:43;4.97;;;1.40;;
28531;SDS011;15738;44.860;10.066;2022-08-11T13:45:29;4.47;;;1.48;;
28531;SDS011;15738;44.860;10.066;2022-08-11T13:48:17;5.78;;;1.63;;
28531;SDS011;15738;44.860;10.066;2022-08-11T13:51:03;4.65;;;1.60;;
28531;SDS011;15738;44.860;10.066;2022-08-11T13:54:21;2.45;;;1.40;;
28531;SDS011;15738;44.860;10.066;2022-08-11T13:57:14;3.75;;;1.50;;
28531;SDS011;15738;44.860;10.066;2022-08-11T14:00:23;5.97;;;1.38;;
28531;SDS011;15738;44.860;10.066;2022-08-11T14:03:12;3.17;;;1.50;;
28531;SDS011;15738;44.860;10.066;2022-08-11T14:05:59;2.75;;;1.52;;
28531;SDS011;15738;44.860;10.066;2022-08-11T14:08:47;7.43;;;1.70;;
28531;SDS011;15738;44.860;10.066;2022-08-11T14:11:35;10.73;;;1.60;;
28531;SDS011;15738;44.860;10.066;2022-08-11T14:15:06;7.30;;;1.70;;
28531;SDS011;15738;44.860;10.066;2022-08-11T14:18:16;7.22;;;1.80;;
28531;SDS011;15738;44.860;10.066;2022-08-11T14:21:04;6.07;;;1.73;;
28531;SDS011;15738;44.860;10.066;2022-08-11T14:24:09;2.85;;;1.55;;
28531;SDS011;15738;44.860;10.066;2022-08-11T14:26:57;10.10;;;1.60;;
28531;SDS011;15738;44.860;10.066;2022-08-11T14:29:43;3.47;;;1.60;;
28531;SDS011;15738;44.860;10.066;2022-08-11T14:32:33;3.17;;;1.50;;
28531;SDS011;15738;44.860;10.066;2022-08-11T14:35:37;6.07;;;1.50;;
28531;SDS011;15738;44.860;10.066;2022-08-11T14:38:28;8.75;;;1.58;;
28531;SDS011;15738;44.860;10.066;2022-08-11T14:41:14;3.80;;;1.50;;
28531;SDS011;15738;44.860;10.066;2022-08-11T14:44:20;4.18;;;1.40;;
28531;SDS011;15738;44.860;10.066;2022-08-11T14:47:25;1.95;;;1.35;;
28531;SDS011;15738;44.860;10.066;2022-08-11T14:50:14;2.92;;;1.60;;
28531;SDS011;15738;44.860;10.066;2022-08-11T14:53:08;3.30;;;1.42;;
28531;SDS011;15738;44.860;10.066;2022-08-11T14:56:01;3.67;;;1.70;;
28531;SDS011;15738;44.860;10.066;2022-08-11T14:59:06;4.88;;;1.80;;
28531;SDS011;15738;44.860;10.066;2022-08-11T15:01:52;10.23;;;1.80;;
28531;SDS011;15738;44.860;10.066;2022-08-11T15:04:57;8.30;;;1.80;;
28531;SDS011;15738;44.860;10.066;2022-08-11T15:07:44;6.47;;;1.90;;
28531;SDS011;15738;44.860;10.066;2022-08-11T15:10:30;4.63;;;1.42;;
28531;SDS011;15738;44.860;10.066;2022-08-11T15:13:16;3.03;;;1.63;;
28531;SDS011;15738;44.860;10.066;2022-08-11T15:16:03;2.42;;;1.35;;
28531;SDS011;15738;44.860;10.066;2022-08-11T15:19:08;6.55;;;1.50;;
28531;SDS011;15738;44.860;10.066;2022-08-11T15:21:55;3.97;;;1.75;;
28531;SDS011;15738;44.860;10.066;2022-08-11T15:24:59;3.35;;;1.67;;
28531;SDS011;15738;44.860;10.066;2022-08-11T15:27:47;10.57;;;1.88;;
28531;SDS011;15738;44.860;10.066;2022-08-11T15:30:56;4.95;;;1.80;;
28531;SDS011;15738;44.860;10.066;2022-08-11T15:34:02;3.20;;;1.50;;
28531;SDS011;15738;44.860;10.066;2022-08-11T15:37:10;1.63;;;1.30;;
28531;SDS011;15738;44.860;10.066;2022-08-11T15:40:22;6.40;;;1.60;;
28531;SDS011;15738;44.860;10.066;2022-08-11T15:43:40;7.82;;;1.70;;
28531;SDS011;15738;44.860;10.066;2022-08-11T15:46:57;6.10;;;1.60;;
28531;SDS011;15738;44.860;10.066;2022-08-11T15:49:46;4.07;;;1.60;;
28531;SDS011;15738;44.860;10.066;2022-08-11T15:53:17;8.32;;;1.40;;
28531;SDS011;15738;44.860;10.066;2022-08-11T15:56:08;9.13;;;1.63;;
28531;SDS011;15738;44.860;10.066;2022-08-11T15:58:56;4.68;;;1.42;;
28531;SDS011;15738;44.860;10.066;2022-08-11T16:02:21;12.25;;;1.92;;
28531;SDS011;15738;44.860;10.066;2022-08-11T16:05:10;4.93;;;1.77;;
28531;SDS011;15738;44.860;10.066;2022-08-11T16:08:20;4.70;;;1.35;;
28531;SDS011;15738;44.860;10.066;2022-08-11T16:11:18;6.32;;;1.45;;
28531;SDS011;15738;44.860;10.066;2022-08-11T16:14:05;2.75;;;1.60;;
28531;SDS011;15738;44.860;10.066;2022-08-11T16:17:13;2.70;;;1.55;;
28531;SDS011;15738;44.860;10.066;2022-08-11T16:20:02;6.60;;;1.50;;
28531;SDS011;15738;44.860;10.066;2022-08-11T16:22:50;2.95;;;1.48;;
28531;SDS011;15738;44.860;10.066;2022-08-11T16:25:46;1.50;;;1.30;;
28531;SDS011;15738;44.860;10.066;2022-08-11T16:28:55;7.53;;;1.70;;
28531;SDS011;15738;44.860;10.066;2022-08-11T16:31:43;4.00;;;1.45;;
28531;SDS011;15738;44.860;10.066;2022-08-11T16:34:57;6.47;;;2.10;;
28531;SDS011;15738;44.860;10.066;2022-08-11T16:38:31;2.90;;;1.60;;
28531;SDS011;15738;44.860;10.066;2022-08-11T16:41:21;3.83;;;1.67;;
28531;SDS011;15738;44.860;10.066;2022-08-11T16:44:28;7.00;;;1.80;;
28531;SDS011;15738;44.860;10.066;2022-08-11T16:47:34;2.60;;;1.63;;
28531;SDS011;15738;44.860;10.066;2022-08-11T16:50:40;3.60;;;1.67;;
28531;SDS011;15738;44.860;10.066;2022-08-11T16:53:27;7.70;;;1.83;;
28531;SDS011;15738;44.860;10.066;2022-08-11T17:02:17;7.90;;;2.00;;
28531;SDS011;15738;44.860;10.066;2022-08-11T17:05:49;3.13;;;1.60;;
28531;SDS011;15738;44.860;10.066;2022-08-11T17:08:56;6.63;;;1.60;;
28531;SDS011;15738;44.860;10.066;2022-08-11T17:12:04;2.40;;;1.45;;
28531;SDS011;15738;44.860;10.066;2022-08-11T17:15:14;5.13;;;1.60;;
28531;SDS011;15738;44.860;10.066;2022-08-11T17:18:21;7.07;;;1.85;;
28531;SDS011;15738;44.860;10.066;2022-08-11T17:21:32;8.75;;;1.75;;
28531;SDS011;15738;44.860;10.066;2022-08-11T17:24:42;3.65;;;1.60;;
28531;SDS011;15738;44.860;10.066;2022-08-11T17:27:30;11.07;;;1.83;;
28531;SDS011;15738;44.860;10.066;2022-08-11T17:30:16;6.45;;;1.88;;
28531;SDS011;15738;44.860;10.066;2022-08-11T17:33:03;3.63;;;1.42;;
28531;SDS011;15738;44.860;10.066;2022-08-11T17:36:07;6.38;;;1.80;;
28531;SDS011;15738;44.860;10.066;2022-08-11T17:38:55;4.82;;;1.70;;
28531;SDS011;15738;44.860;10.066;2022-08-11T17:41:41;2.75;;;1.60;;
28531;SDS011;15738;44.860;10.066;2022-08-11T17:44:47;4.22;;;1.70;;
28531;SDS011;15738;44.860;10.066;2022-08-11T17:47:51;2.25;;;1.70;;
28531;SDS011;15738;44.860;10.066;2022-08-11T17:50:58;3.00;;;1.75;;
28531;SDS011;15738;44.860;10.066;2022-08-11T17:53:47;12.73;;;2.00;;
28531;SDS011;15738;44.860;10.066;2022-08-11T17:57:09;7.68;;;1.70;;
28531;SDS011;15738;44.860;10.066;2022-08-11T18:00:16;8.25;;;1.80;;
28531;SDS011;15738;44.860;10.066;2022-08-11T18:03:02;3.25;;;1.67;;
28531;SDS011;15738;44.860;10.066;2022-08-11T18:06:09;4.78;;;1.60;;
28531;SDS011;15738;44.860;10.066;2022-08-11T18:08:57;4.75;;;2.08;;
28531;SDS011;15738;44.860;10.066;2022-08-11T18:12:05;10.10;;;1.95;;
28531;SDS011;15738;44.860;10.066;2022-08-11T18:15:10;6.10;;;1.90;;
28531;SDS011;15738;44.860;10.066;2022-08-11T18:18:16;7.40;;;1.92;;
28531;SDS011;15738;44.860;10.066;2022-08-11T18:21:20;5.97;;;1.75;;
28531;SDS011;15738;44.860;10.066;2022-08-11T18:24:25;7.40;;;1.75;;
28531;SDS011;15738;44.860;10.066;2022-08-11T18:27:33;12.23;;;2.38;;
28531;SDS011;15738;44.860;10.066;2022-08-11T18:30:41;7.05;;;2.00;;
28531;SDS011;15738;44.860;10.066;2022-08-11T18:33:52;3.05;;;1.67;;
28531;SDS011;15738;44.860;10.066;2022-08-11T18:40:13;7.13;;;2.10;;
28531;SDS011;15738;44.860;10.066;2022-08-11T18:43:21;7.68;;;2.50;;
28531;SDS011;15738;44.860;10.066;2022-08-11T18:46:29;6.80;;;1.92;;
28531;SDS011;15738;44.860;10.066;2022-08-11T18:49:40;4.50;;;1.73;;
28531;SDS011;15738;44.860;10.066;2022-08-11T18:52:50;12.30;;;2.10;;
28531;SDS011;15738;44.860;10.066;2022-08-11T18:55:56;6.07;;;1.98;;
28531;SDS011;15738;44.860;10.066;2022-08-11T18:59:02;8.95;;;1.88;;
28531;SDS011;15738;44.860;10.066;2022-08-11T19:02:10;5.38;;;1.85;;
28531;SDS011;15738;44.860;10.066;2022-08-11T19:05:34;18.15;;;2.30;;
28531;SDS011;15738;44.860;10.066;2022-08-11T19:09:03;12.82;;;2.10;;
28531;SDS011;15738;44.860;10.066;2022-08-11T19:12:10;14.45;;;2.60;;
28531;SDS011;15738;44.860;10.066;2022-08-11T19:15:16;14.07;;;2.72;;
28531;SDS011;15738;44.860;10.066;2022-08-11T19:18:21;5.93;;;2.30;;
28531;SDS011;15738;44.860;10.066;2022-08-11T19:21:27;7.72;;;2.67;;
28531;SDS011;15738;44.860;10.066;2022-08-11T19:24:32;7.40;;;2.13;;
28531;SDS011;15738;44.860;10.066;2022-08-11T19:27:38;12.38;;;2.47;;
28531;SDS011;15738;44.860;10.066;2022-08-11T19:30:45;10.15;;;2.40;;
28531;SDS011;15738;44.860;10.066;2022-08-11T19:33:50;7.43;;;2.20;;
28531;SDS011;15738;44.860;10.066;2022-08-11T19:36:55;5.15;;;2.35;;
28531;SDS011;15738;44.860;10.066;2022-08-11T19:40:04;10.63;;;2.20;;
28531;SDS011;15738;44.860;10.066;2022-08-11T19:43:10;11.98;;;2.50;;
28531;SDS011;15738;44.860;10.066;2022-08-11T19:46:17;9.05;;;2.70;;
28531;SDS011;15738;44.860;10.066;2022-08-11T19:49:24;10.10;;;2.60;;
28531;SDS011;15738;44.860;10.066;2022-08-11T19:52:29;5.78;;;2.53;;
28531;SDS011;15738;44.860;10.066;2022-08-11T19:55:34;12.32;;;2.65;;
28531;SDS011;15738;44.860;10.066;2022-08-11T19:58:40;6.50;;;2.38;;
28531;SDS011;15738;44.860;10.066;2022-08-11T20:01:45;8.23;;;2.50;;
28531;SDS011;15738;44.860;10.066;2022-08-11T20:04:58;6.82;;;2.20;;
28531;SDS011;15738;44.860;10.066;2022-08-11T20:08:03;6.53;;;2.08;;
28531;SDS011;15738;44.860;10.066;2022-08-11T20:11:10;6.28;;;2.10;;
28531;SDS011;15738;44.860;10.066;2022-08-11T20:14:18;9.20;;;2.53;;
28531;SDS011;15738;44.860;10.066;2022-08-11T20:17:25;7.55;;;2.22;;
28531;SDS011;15738;44.860;10.066;2022-08-11T20:20:32;6.70;;;2.28;;
28531;SDS011;15738;44.860;10.066;2022-08-11T20:23:39;5.82;;;1.75;;
28531;SDS011;15738;44.860;10.066;2022-08-11T20:26:45;4.18;;;2.05;;
28531;SDS011;15738;44.860;10.066;2022-08-11T20:30:08;5.85;;;1.92;;
28531;SDS011;15738;44.860;10.066;2022-08-11T20:33:12;7.40;;;1.60;;
28531;SDS011;15738;44.860;10.066;2022-08-11T20:36:18;7.13;;;2.00;;
28531;SDS011;15738;44.860;10.066;2022-08-11T20:39:23;4.60;;;2.03;;
28531;SDS011;15738;44.860;10.066;2022-08-11T20:42:27;5.55;;;1.50;;
28531;SDS011;15738;44.860;10.066;2022-08-11T20:45:34;9.48;;;1.90;;
28531;SDS011;15738;44.860;10.066;2022-08-11T20:48:41;8.50;;;2.10;;
28531;SDS011;15738;44.860;10.066;2022-08-11T20:51:52;9.45;;;2.10;;
28531;SDS011;15738;44.860;10.066;2022-08-11T20:54:58;5.78;;;1.92;;
28531;SDS011;15738;44.860;10.066;2022-08-11T20:58:25;6.00;;;1.85;;
28531;SDS011;15738;44.860;10.066;2022-08-11T21:01:52;4.22;;;1.83;;
28531;SDS011;15738;44.860;10.066;2022-08-11T21:04:58;4.72;;;1.83;;
28531;SDS011;15738;44.860;10.066;2022-08-11T21:08:26;6.00;;;1.70;;
28531;SDS011;15738;44.860;10.066;2022-08-11T21:11:34;5.28;;;2.00;;
28531;SDS011;15738;44.860;10.066;2022-08-11T21:14:41;5.63;;;1.83;;